createdAt,value
2017-12-02T00:01:27.232Z,51.30
2017-12-02T00:03:55.294Z,50.40
2017-12-02T00:06:24.175Z,50.50
2017-12-02T00:08:52.094Z,50.80
2017-12-02T00:11:20.012Z,50.70
2017-12-02T00:13:47.931Z,51.80
2017-12-02T00:16:15.074Z,51.20
2017-12-02T00:18:42.255Z,51.20
2017-12-02T00:21:10.222Z,51.20
2017-12-02T00:23:37.382Z,51.00
2017-12-02T00:26:04.534Z,50.90
2017-12-02T00:28:31.691Z,50.80
2017-12-02T00:30:58.840Z,50.70
2017-12-02T00:33:25.986Z,51.00
2017-12-02T00:35:53.180Z,50.80
2017-12-02T00:38:20.334Z,51.20
2017-12-02T00:40:47.483Z,51.10
2017-12-02T00:43:14.634Z,50.70
2017-12-02T00:45:41.779Z,50.50
2017-12-02T00:48:09.694Z,50.50
2017-12-02T00:50:37.651Z,50.40
2017-12-02T00:53:04.917Z,50.60
2017-12-02T00:55:32.062Z,50.50
2017-12-02T00:57:59.231Z,51.10
2017-12-02T01:00:26.377Z,51.50
2017-12-02T01:02:54.424Z,51.00
2017-12-02T01:05:21.567Z,50.50
2017-12-02T01:07:48.725Z,50.30
2017-12-02T01:10:15.938Z,50.40
2017-12-02T01:12:43.886Z,50.60
2017-12-02T01:15:11.035Z,50.60
2017-12-02T01:17:38.183Z,51.20
2017-12-02T01:20:05.331Z,51.40
2017-12-02T01:22:33.239Z,50.60
2017-12-02T01:25:01.151Z,50.30
2017-12-02T01:27:28.298Z,50.30
2017-12-02T01:29:55.439Z,50.40
2017-12-02T01:32:22.585Z,50.60
2017-12-02T01:34:49.730Z,50.40
2017-12-02T01:37:16.911Z,51.40
2017-12-02T01:39:45.039Z,50.90
2017-12-02T01:42:12.986Z,50.40
2017-12-02T01:44:41.059Z,50.40
2017-12-02T01:47:08.237Z,50.30
2017-12-02T01:49:36.253Z,50.00
2017-12-02T01:52:03.430Z,51.30
2017-12-02T01:54:31.503Z,51.40
2017-12-02T01:56:58.647Z,51.60
2017-12-02T01:59:25.818Z,50.80
2017-12-02T02:01:54.258Z,50.50
2017-12-02T02:04:21.446Z,50.50
2017-12-02T02:06:49.406Z,50.50
2017-12-02T02:09:17.330Z,50.40
2017-12-02T02:11:45.370Z,50.80
2017-12-02T02:14:13.281Z,51.30
2017-12-02T02:16:40.421Z,51.30
2017-12-02T02:19:08.499Z,50.90
2017-12-02T02:21:35.650Z,50.20
2017-12-02T02:24:02.823Z,50.20
2017-12-02T02:26:29.971Z,50.70
2017-12-02T02:28:57.878Z,51.30
2017-12-02T02:31:25.826Z,52.10
2017-12-02T02:33:52.971Z,51.50
2017-12-02T02:36:20.118Z,51.50
2017-12-02T02:38:47.266Z,50.90
2017-12-02T02:41:14.421Z,51.00
2017-12-02T02:43:41.596Z,51.00
2017-12-02T02:46:09.506Z,51.10
2017-12-02T02:48:37.268Z,51.10
2017-12-02T02:51:04.419Z,51.30
2017-12-02T02:53:31.569Z,51.40
2017-12-02T02:55:59.653Z,51.00
2017-12-02T02:58:26.805Z,50.70
2017-12-02T03:00:53.952Z,51.00
2017-12-02T03:03:22.094Z,50.70
2017-12-02T03:05:50.017Z,51.10
2017-12-02T03:08:17.162Z,51.00
2017-12-02T03:10:45.986Z,51.70
2017-12-02T03:13:13.136Z,51.50
2017-12-02T03:15:41.070Z,51.00
2017-12-02T03:18:08.229Z,50.60
2017-12-02T03:20:36.217Z,50.80
2017-12-02T03:23:03.360Z,50.80
2017-12-02T03:25:30.498Z,50.60
2017-12-02T03:27:58.466Z,50.90
2017-12-02T03:30:25.611Z,50.50
2017-12-02T03:32:53.726Z,51.60
2017-12-02T03:35:20.882Z,51.00
2017-12-02T03:37:48.798Z,50.70
2017-12-02T03:40:15.975Z,50.70
2017-12-02T03:42:43.124Z,50.80
2017-12-02T03:45:10.271Z,50.60
2017-12-02T03:47:38.216Z,51.00
2017-12-02T03:50:05.363Z,51.40
2017-12-02T03:52:32.551Z,52.00
2017-12-02T03:54:59.690Z,51.20
2017-12-02T03:57:26.836Z,50.70
2017-12-02T03:59:54.755Z,50.70
2017-12-02T04:02:22.710Z,50.90
2017-12-02T04:04:49.867Z,50.80
2017-12-02T04:07:17.790Z,51.90
2017-12-02T04:09:44.940Z,51.80
2017-12-02T04:12:12.907Z,50.90
2017-12-02T04:14:40.058Z,50.70
2017-12-02T04:17:07.244Z,50.70
2017-12-02T04:19:34.396Z,51.00
2017-12-02T04:22:01.544Z,51.10
2017-12-02T04:24:29.482Z,51.30
2017-12-02T04:26:56.634Z,51.90
2017-12-02T04:29:23.816Z,51.00
2017-12-02T04:31:50.970Z,51.80
2017-12-02T04:34:19.025Z,51.90
2017-12-02T04:36:46.180Z,51.40
2017-12-02T04:39:14.132Z,50.40
2017-12-02T04:41:41.322Z,50.10
2017-12-02T04:44:09.370Z,50.30
2017-12-02T04:46:37.406Z,50.80
2017-12-02T04:49:04.558Z,51.20
2017-12-02T04:51:32.521Z,51.30
2017-12-02T04:53:59.659Z,51.40
2017-12-02T04:56:28.543Z,51.50
2017-12-02T04:58:56.456Z,51.50
2017-12-02T05:01:24.426Z,51.40
2017-12-02T05:03:52.350Z,50.80
2017-12-02T05:06:21.232Z,50.90
2017-12-02T05:08:48.411Z,51.00
2017-12-02T05:11:16.334Z,50.90
2017-12-02T05:13:43.510Z,51.10
2017-12-02T05:16:12.186Z,51.60
2017-12-02T05:18:39.448Z,51.50
2017-12-02T05:21:08.242Z,51.20
2017-12-02T05:23:35.366Z,51.20
2017-12-02T05:26:03.436Z,51.00
2017-12-02T05:28:31.534Z,51.30
2017-12-02T05:30:59.618Z,51.10
2017-12-02T05:33:28.367Z,51.40
2017-12-02T05:35:56.290Z,51.40
2017-12-02T05:38:24.375Z,51.90
2017-12-02T05:40:51.564Z,51.00
2017-12-02T05:43:18.710Z,50.60
2017-12-02T05:45:46.618Z,50.90
2017-12-02T05:48:15.474Z,50.80
2017-12-02T05:50:43.554Z,50.80
2017-12-02T05:53:10.738Z,50.70
2017-12-02T05:55:38.654Z,51.10
2017-12-02T05:58:05.814Z,51.20
2017-12-02T06:00:32.963Z,50.80
2017-12-02T06:03:00.755Z,50.50
2017-12-02T06:05:27.934Z,51.80
2017-12-02T06:07:55.845Z,50.20
2017-12-02T06:10:22.995Z,50.10
2017-12-02T06:12:50.142Z,51.20
2017-12-02T06:15:17.297Z,51.00
2017-12-02T06:17:44.450Z,50.70
2017-12-02T06:20:11.603Z,51.80
2017-12-02T06:22:38.760Z,51.50
2017-12-02T06:25:06.667Z,50.60
2017-12-02T06:27:34.588Z,50.30
2017-12-02T06:30:02.521Z,50.30
2017-12-02T06:32:29.667Z,50.50
2017-12-02T06:34:57.574Z,50.70
2017-12-02T06:37:24.725Z,50.60
2017-12-02T06:39:51.875Z,50.60
2017-12-02T06:42:19.020Z,51.00
2017-12-02T06:44:46.974Z,50.60
2017-12-02T06:47:14.127Z,51.10
2017-12-02T06:49:41.279Z,50.90
2017-12-02T06:52:08.435Z,50.40
2017-12-02T06:54:35.579Z,50.20
2017-12-02T06:57:02.726Z,50.50
2017-12-02T06:59:29.873Z,51.00
2017-12-02T07:01:57.056Z,51.30
2017-12-02T07:04:24.211Z,50.50
2017-12-02T07:06:51.359Z,50.30
2017-12-02T07:09:18.507Z,50.50
2017-12-02T07:11:45.653Z,50.40
2017-12-02T07:14:12.800Z,51.10
2017-12-02T07:16:39.951Z,51.10
2017-12-02T07:19:07.108Z,50.50
2017-12-02T07:21:34.259Z,50.60
2017-12-02T07:24:01.407Z,50.40
2017-12-02T07:26:28.563Z,50.40
2017-12-02T07:28:55.753Z,50.40
2017-12-02T07:31:22.911Z,51.20
2017-12-02T07:33:50.823Z,50.90
2017-12-02T07:36:17.975Z,50.80
2017-12-02T07:38:45.894Z,51.00
2017-12-02T07:41:13.845Z,50.20
2017-12-02T07:43:41.347Z,50.20
2017-12-02T07:46:09.299Z,51.20
2017-12-02T07:48:37.521Z,50.60
2017-12-02T07:51:04.667Z,50.50
2017-12-02T07:53:31.811Z,50.10
2017-12-02T07:55:58.970Z,51.10
2017-12-02T07:58:26.110Z,51.00
2017-12-02T08:00:53.261Z,51.10
2017-12-02T08:03:20.410Z,50.50
2017-12-02T08:05:48.326Z,50.30
2017-12-02T08:08:15.471Z,50.20
2017-12-02T08:10:42.658Z,51.20
2017-12-02T08:13:10.601Z,50.80
2017-12-02T08:15:37.798Z,50.80
2017-12-02T08:18:04.944Z,51.20
2017-12-02T08:20:32.864Z,50.60
2017-12-02T08:23:00.011Z,50.70
2017-12-02T08:25:27.159Z,50.40
2017-12-02T08:27:54.303Z,50.10
2017-12-02T08:30:22.218Z,50.80
2017-12-02T08:32:51.032Z,50.60
2017-12-02T08:35:18.174Z,50.50
2017-12-02T08:37:46.934Z,50.50
2017-12-02T08:40:15.096Z,50.40
2017-12-02T08:42:43.024Z,50.40
2017-12-02T08:45:10.181Z,50.70
2017-12-02T08:47:38.106Z,51.10
2017-12-02T08:50:06.024Z,50.90
2017-12-02T08:52:33.176Z,50.80
2017-12-02T08:55:01.236Z,50.60
2017-12-02T08:57:28.379Z,50.40
2017-12-02T08:59:55.527Z,50.80
2017-12-02T09:02:23.578Z,50.60
2017-12-02T09:04:51.542Z,50.90
2017-12-02T09:07:20.266Z,50.90
2017-12-02T09:09:48.346Z,50.90
2017-12-02T09:12:15.491Z,50.60
2017-12-02T09:14:43.579Z,50.80
2017-12-02T09:17:10.727Z,50.30
2017-12-02T09:19:37.877Z,50.50
2017-12-02T09:22:05.029Z,50.40
2017-12-02T09:24:32.181Z,50.80
2017-12-02T09:26:59.326Z,50.90
2017-12-02T09:29:26.467Z,50.60
2017-12-02T09:31:55.476Z,50.50
2017-12-02T09:34:22.626Z,50.50
2017-12-02T09:36:49.823Z,50.80
2017-12-02T09:39:17.895Z,50.90
2017-12-02T09:41:45.087Z,50.60
2017-12-02T09:44:12.231Z,50.50
2017-12-02T09:46:40.269Z,50.50
2017-12-02T09:49:07.415Z,50.70
2017-12-02T09:51:35.506Z,50.90
2017-12-02T09:54:03.422Z,50.70
2017-12-02T09:56:30.622Z,50.60
2017-12-02T09:58:57.750Z,50.50
2017-12-02T10:01:25.694Z,50.80
2017-12-02T10:03:52.875Z,50.70
2017-12-02T10:06:20.018Z,50.90
2017-12-02T10:08:47.217Z,51.00
2017-12-02T10:11:14.412Z,50.80
2017-12-02T10:13:41.554Z,50.30
2017-12-02T10:16:08.698Z,50.50
2017-12-02T10:18:36.659Z,50.60
2017-12-02T10:21:03.854Z,50.40
2017-12-02T10:23:31.938Z,50.80
2017-12-02T10:25:59.123Z,50.80
2017-12-02T10:28:27.043Z,50.90
2017-12-02T10:30:55.026Z,50.30
2017-12-02T10:33:23.781Z,50.20
2017-12-02T10:35:52.170Z,51.10
2017-12-02T10:38:19.405Z,50.50
2017-12-02T10:40:46.548Z,50.80
2017-12-02T10:43:13.693Z,50.50
2017-12-02T10:45:40.843Z,50.20
2017-12-02T10:48:08.038Z,50.30
2017-12-02T10:50:35.187Z,50.50
2017-12-02T10:53:02.367Z,50.60
2017-12-02T10:55:30.498Z,50.50
2017-12-02T10:57:57.652Z,50.40
2017-12-02T11:00:24.802Z,50.60
2017-12-02T11:02:51.947Z,50.20
2017-12-02T11:05:19.098Z,50.10
2017-12-02T11:07:46.295Z,50.20
2017-12-02T11:10:14.218Z,51.10
2017-12-02T11:12:41.457Z,51.00
2017-12-02T11:15:08.626Z,51.30
2017-12-02T11:17:35.779Z,51.30
2017-12-02T11:20:02.931Z,51.20
2017-12-02T11:22:30.115Z,51.20
2017-12-02T11:24:57.276Z,51.00
2017-12-02T11:27:26.010Z,51.00
2017-12-02T11:29:54.046Z,51.00
2017-12-02T11:32:21.974Z,50.70
2017-12-02T11:34:49.134Z,50.70
2017-12-02T11:37:16.290Z,50.50
2017-12-02T11:39:43.431Z,50.50
2017-12-02T11:42:10.579Z,50.90
2017-12-02T11:44:37.729Z,50.30
2017-12-02T11:47:04.887Z,50.60
2017-12-02T11:49:32.057Z,50.60
2017-12-02T11:52:00.098Z,50.50
2017-12-02T11:54:27.287Z,50.50
2017-12-02T11:56:55.218Z,50.50
2017-12-02T11:59:22.357Z,51.10
2017-12-02T12:01:49.506Z,50.20
2017-12-02T12:04:16.734Z,50.40
2017-12-02T12:06:43.886Z,50.70
2017-12-02T12:09:11.147Z,50.80
2017-12-02T12:11:38.298Z,50.80
2017-12-02T12:14:05.460Z,50.30
2017-12-02T12:16:33.383Z,50.60
2017-12-02T12:19:02.203Z,54.40
2017-12-02T12:21:29.394Z,53.80
2017-12-02T12:23:56.535Z,54.70
2017-12-02T12:26:23.686Z,54.60
2017-12-02T12:28:50.830Z,54.90
2017-12-02T12:31:17.982Z,55.20
2017-12-02T12:33:45.131Z,54.60
2017-12-02T12:36:12.272Z,53.10
2017-12-02T12:38:40.203Z,54.70
2017-12-02T12:41:08.202Z,50.40
2017-12-02T12:43:36.134Z,50.40
2017-12-02T12:46:04.215Z,51.10
2017-12-02T12:48:33.063Z,49.30
2017-12-02T12:51:01.142Z,49.20
2017-12-02T12:53:28.288Z,49.00
2017-12-02T12:55:56.403Z,49.40
2017-12-02T12:58:25.226Z,49.90
2017-12-02T13:00:52.411Z,49.80
2017-12-02T13:03:19.559Z,49.30
2017-12-02T13:05:47.675Z,49.50
2017-12-02T13:08:16.699Z,49.70
2017-12-02T13:10:43.847Z,49.70
2017-12-02T13:13:11.928Z,50.50
2017-12-02T13:15:39.175Z,49.80
2017-12-02T13:18:06.362Z,49.50
2017-12-02T13:20:33.510Z,49.90
2017-12-02T13:23:01.523Z,50.20
2017-12-02T13:25:29.439Z,50.60
2017-12-02T13:27:57.523Z,50.60
2017-12-02T13:30:24.666Z,50.40
2017-12-02T13:32:51.887Z,49.70
2017-12-02T13:35:19.027Z,50.00
2017-12-02T13:37:46.299Z,50.20
2017-12-02T13:40:13.474Z,50.30
2017-12-02T13:42:40.619Z,50.50
2017-12-02T13:45:07.808Z,50.30
2017-12-02T13:47:34.958Z,49.80
2017-12-02T13:50:02.155Z,50.20
2017-12-02T13:52:29.307Z,50.20
2017-12-02T13:54:56.572Z,50.20
2017-12-02T13:57:23.810Z,50.20
2017-12-02T13:59:51.000Z,50.10
2017-12-02T14:02:18.179Z,49.70
2017-12-02T14:04:46.129Z,49.80
2017-12-02T14:07:13.329Z,49.80
2017-12-02T14:09:40.477Z,50.00
2017-12-02T14:12:07.630Z,50.40
2017-12-02T14:14:34.891Z,50.00
2017-12-02T14:17:03.043Z,50.30
2017-12-02T14:19:30.983Z,50.30
2017-12-02T14:21:58.182Z,50.20
2017-12-02T14:24:26.151Z,50.80
2017-12-02T14:26:54.066Z,51.20
2017-12-02T14:29:21.806Z,50.50
2017-12-02T14:31:48.959Z,50.70
2017-12-02T14:34:16.190Z,50.70
2017-12-02T14:36:43.350Z,51.10
2017-12-02T14:39:11.446Z,51.10
2017-12-02T14:41:39.407Z,52.00
2017-12-02T14:44:06.647Z,53.80
2017-12-02T14:46:34.406Z,51.70
2017-12-02T14:49:01.559Z,50.40
2017-12-02T14:51:28.711Z,50.10
2017-12-02T14:53:55.861Z,50.60
2017-12-02T14:56:23.894Z,50.30
2017-12-02T14:58:51.990Z,50.10
2017-12-02T15:01:19.898Z,50.40
2017-12-02T15:03:47.259Z,50.30
2017-12-02T15:06:14.404Z,50.10
2017-12-02T15:08:41.558Z,50.60
2017-12-02T15:11:08.706Z,50.50
2017-12-02T15:13:36.616Z,50.50
2017-12-02T15:16:04.534Z,50.60
2017-12-02T15:18:32.453Z,50.50
2017-12-02T15:21:00.403Z,50.60
2017-12-02T15:23:28.340Z,50.60
2017-12-02T15:25:56.411Z,50.70
2017-12-02T15:28:23.555Z,50.40
2017-12-02T15:30:50.713Z,50.30
2017-12-02T15:33:17.864Z,50.70
2017-12-02T15:35:45.991Z,50.40
2017-12-02T15:38:13.959Z,53.30
2017-12-02T15:40:41.885Z,51.50
2017-12-02T15:43:09.036Z,51.00
2017-12-02T15:45:36.231Z,51.40
2017-12-02T15:48:04.285Z,52.10
2017-12-02T15:50:31.443Z,50.90
2017-12-02T15:52:58.598Z,49.80
2017-12-02T15:55:25.756Z,50.20
2017-12-02T15:57:52.906Z,50.40
2017-12-02T16:00:20.059Z,49.20
2017-12-02T16:02:48.927Z,50.20
2017-12-02T16:05:16.587Z,49.90
2017-12-02T16:07:43.745Z,50.10
2017-12-02T16:10:10.891Z,50.40
2017-12-02T16:12:38.863Z,50.10
2017-12-02T16:15:06.017Z,50.10
2017-12-02T16:17:33.162Z,50.30
2017-12-02T16:20:00.302Z,50.40
2017-12-02T16:22:28.224Z,50.70
2017-12-02T16:24:56.143Z,50.60
2017-12-02T16:27:23.293Z,50.60
2017-12-02T16:29:51.342Z,50.40
2017-12-02T16:32:18.491Z,50.20
2017-12-02T16:34:45.640Z,50.30
2017-12-02T16:37:12.787Z,50.10
2017-12-02T16:39:40.836Z,50.20
2017-12-02T16:42:09.647Z,50.60
2017-12-02T16:44:36.796Z,50.60
2017-12-02T16:47:04.000Z,50.10
2017-12-02T16:49:31.148Z,50.00
2017-12-02T16:51:58.298Z,50.00
2017-12-02T16:54:25.482Z,49.90
2017-12-02T16:56:53.403Z,49.20
2017-12-02T16:59:20.590Z,49.20
2017-12-02T17:01:48.507Z,50.30
2017-12-02T17:04:15.659Z,50.00
2017-12-02T17:06:42.809Z,51.10
2017-12-02T17:09:09.990Z,50.60
2017-12-02T17:11:37.141Z,51.00
2017-12-02T17:14:05.071Z,52.20
2017-12-02T17:16:32.218Z,52.20
2017-12-02T17:19:00.159Z,52.10
2017-12-02T17:21:28.943Z,50.50
2017-12-02T17:23:56.094Z,50.40
2017-12-02T17:26:23.242Z,50.00
2017-12-02T17:28:50.395Z,49.70
2017-12-02T17:31:17.573Z,49.70
2017-12-02T17:33:44.711Z,50.20
2017-12-02T17:36:12.637Z,49.80
2017-12-02T17:38:39.786Z,49.90
2017-12-02T17:41:07.698Z,49.60
2017-12-02T17:43:35.627Z,49.70
2017-12-02T17:46:03.582Z,49.70
2017-12-02T17:48:30.787Z,48.80
2017-12-02T17:50:58.960Z,48.30
2017-12-02T17:53:26.929Z,48.70
2017-12-02T17:55:54.863Z,49.00
2017-12-02T17:58:22.042Z,48.90
2017-12-02T18:00:49.200Z,48.40
2017-12-02T18:03:17.131Z,49.10
2017-12-02T18:05:44.282Z,48.40
2017-12-02T18:08:11.467Z,48.20
2017-12-02T18:10:38.619Z,48.90
2017-12-02T18:13:05.775Z,49.40
2017-12-02T18:15:33.699Z,49.10
2017-12-02T18:18:00.879Z,49.00
2017-12-02T18:20:28.022Z,49.50
2017-12-02T18:22:55.941Z,49.60
2017-12-02T18:25:23.095Z,49.70
2017-12-02T18:27:50.243Z,49.40
2017-12-02T18:30:17.431Z,49.30
2017-12-02T18:32:44.693Z,49.40
2017-12-02T18:35:11.844Z,49.40
2017-12-02T18:37:39.006Z,49.00
2017-12-02T18:40:06.150Z,50.20
2017-12-02T18:42:33.298Z,50.00
2017-12-02T18:45:01.384Z,49.30
2017-12-02T18:47:28.542Z,49.60
2017-12-02T18:49:55.692Z,49.40
2017-12-02T18:52:22.834Z,50.00
2017-12-02T18:54:49.977Z,50.30
2017-12-02T18:57:17.155Z,49.80
2017-12-02T18:59:45.086Z,49.80
2017-12-02T19:02:12.270Z,49.80
2017-12-02T19:04:39.418Z,50.20
2017-12-02T19:07:06.573Z,50.40
2017-12-02T19:09:34.516Z,50.40
2017-12-02T19:12:01.658Z,49.70
2017-12-02T19:14:28.918Z,49.70
2017-12-02T19:16:56.179Z,49.40
2017-12-02T19:19:23.332Z,49.60
2017-12-02T19:21:50.487Z,50.30
2017-12-02T19:24:18.567Z,50.70
2017-12-02T19:26:45.710Z,49.50
2017-12-02T19:29:12.890Z,49.70
2017-12-02T19:31:40.807Z,50.30
2017-12-02T19:34:08.003Z,50.20
2017-12-02T19:36:35.155Z,50.60
2017-12-02T19:39:02.303Z,50.50
2017-12-02T19:41:29.464Z,50.60
2017-12-02T19:43:57.387Z,50.10
2017-12-02T19:46:24.542Z,50.10
2017-12-02T19:48:52.299Z,49.70
2017-12-02T19:51:22.643Z,49.20
2017-12-02T19:53:51.240Z,49.30
2017-12-02T19:56:20.699Z,48.80
2017-12-02T19:58:48.692Z,48.90
2017-12-02T20:01:15.850Z,49.00
2017-12-02T20:03:43.206Z,49.20
2017-12-02T20:06:10.347Z,49.30
2017-12-02T20:08:37.746Z,49.70
2017-12-02T20:11:06.992Z,49.60
2017-12-02T20:13:34.956Z,48.90
2017-12-02T20:16:02.127Z,49.20
2017-12-02T20:18:30.397Z,49.10
2017-12-02T20:20:58.555Z,49.90
2017-12-02T20:23:25.702Z,49.80
2017-12-02T20:25:52.843Z,49.20
2017-12-02T20:28:20.756Z,49.50
2017-12-02T20:30:47.902Z,49.40
2017-12-02T20:33:15.055Z,50.40
2017-12-02T20:35:42.208Z,50.30
2017-12-02T20:38:09.391Z,49.90
2017-12-02T20:40:36.547Z,49.80
2017-12-02T20:43:04.490Z,49.80
2017-12-02T20:45:32.431Z,49.90
2017-12-02T20:47:59.581Z,50.40
2017-12-02T20:50:26.722Z,50.30
2017-12-02T20:52:53.908Z,50.10
2017-12-02T20:55:21.050Z,49.90
2017-12-02T20:57:48.196Z,49.80
2017-12-02T21:00:16.382Z,50.20
2017-12-02T21:02:43.524Z,50.40
2017-12-02T21:05:11.471Z,50.20
2017-12-02T21:07:39.411Z,50.10
2017-12-02T21:10:07.363Z,50.00
2017-12-02T21:12:34.516Z,50.00
2017-12-02T21:15:01.696Z,50.50
2017-12-02T21:17:29.658Z,50.00
2017-12-02T21:19:58.475Z,50.00
2017-12-02T21:22:25.623Z,50.00
2017-12-02T21:24:52.775Z,50.40
2017-12-02T21:27:19.922Z,50.70
2017-12-02T21:29:47.067Z,50.30
2017-12-02T21:32:14.215Z,50.40
2017-12-02T21:34:42.123Z,49.80
2017-12-02T21:37:09.267Z,49.80
2017-12-02T21:39:36.413Z,50.20
2017-12-02T21:42:03.560Z,50.40
2017-12-02T21:44:30.744Z,50.70
2017-12-02T21:46:58.811Z,50.70
2017-12-02T21:49:25.952Z,50.60
2017-12-02T21:51:53.864Z,50.70
2017-12-02T21:54:21.779Z,50.80
2017-12-02T21:56:48.923Z,50.80
2017-12-02T21:59:16.073Z,50.60
2017-12-02T22:01:43.219Z,50.40
2017-12-02T22:04:10.410Z,51.00
2017-12-02T22:06:37.559Z,50.60
2017-12-02T22:09:04.707Z,50.60
2017-12-02T22:11:32.778Z,50.90
2017-12-02T22:13:59.922Z,50.60
2017-12-02T22:16:27.062Z,50.70
2017-12-02T22:18:54.208Z,50.70
2017-12-02T22:21:21.358Z,50.70
2017-12-02T22:23:48.512Z,50.30
2017-12-02T22:26:15.687Z,50.60
2017-12-02T22:28:42.827Z,50.80
2017-12-02T22:31:09.971Z,50.70
2017-12-02T22:33:37.122Z,50.80
2017-12-02T22:36:04.266Z,50.80
2017-12-02T22:38:31.419Z,50.30
2017-12-02T22:40:58.567Z,50.60
2017-12-02T22:43:25.717Z,50.60
2017-12-02T22:45:52.869Z,50.50
2017-12-02T22:48:20.029Z,50.50
2017-12-02T22:50:51.155Z,50.40
2017-12-02T22:53:18.351Z,50.20
2017-12-02T22:55:45.503Z,50.60
2017-12-02T22:58:12.646Z,50.10
2017-12-02T23:00:39.832Z,50.40
2017-12-02T23:03:07.746Z,50.60
2017-12-02T23:05:34.890Z,50.60
2017-12-02T23:08:02.087Z,50.30
2017-12-02T23:10:29.257Z,50.50
2017-12-02T23:15:30.807Z,49.80
2017-12-02T23:17:57.948Z,50.20
2017-12-02T23:20:25.100Z,50.50
2017-12-02T23:22:52.243Z,50.90
2017-12-02T23:25:19.386Z,50.80
2017-12-02T23:27:46.534Z,50.80
2017-12-02T23:32:47.992Z,50.40
2017-12-02T23:35:16.046Z,50.40
2017-12-02T23:37:44.118Z,50.80
2017-12-02T23:40:11.267Z,50.60
2017-12-02T23:42:38.410Z,50.60
2017-12-02T23:45:05.550Z,50.50
2017-12-02T23:47:32.733Z,50.30
2017-12-02T23:50:00.779Z,50.60
2017-12-02T23:52:28.691Z,50.70
2017-12-02T23:54:56.598Z,50.00
2017-12-02T23:57:24.519Z,50.20
2017-12-02T23:59:51.663Z,50.20
